sensor_id;sensor_type;location;lat;lon;timestamp;P1;durP1;ratioP1;P2;durP2;ratioP2
3177;SDS011;38141;42.666;23.344;2023-04-03T00:01:35;14.33;;;8.50;;
3177;SDS011;38141;42.666;23.344;2023-04-03T00:04:03;12.90;;;8.33;;
3177;SDS011;38141;42.666;23.344;2023-04-03T00:06:30;13.17;;;9.70;;
3177;SDS011;38141;42.666;23.344;2023-04-03T00:09:00;13.60;;;8.70;;
3177;SDS011;38141;42.666;23.344;2023-04-03T00:11:26;14.97;;;8.80;;
3177;SDS011;38141;42.666;23.344;2023-04-03T00:13:55;7.20;;;5.50;;
3177;SDS011;38141;42.666;23.344;2023-04-03T00:16:21;11.13;;;8.77;;
3177;SDS011;38141;42.666;23.344;2023-04-03T00:18:48;11.80;;;6.50;;
3177;SDS011;38141;42.666;23.344;2023-04-03T00:21:15;4.83;;;4.10;;
3177;SDS011;38141;42.666;23.344;2023-04-03T00:23:42;9.00;;;5.37;;
3177;SDS011;38141;42.666;23.344;2023-04-03T00:26:09;9.67;;;5.80;;
3177;SDS011;38141;42.666;23.344;2023-04-03T00:28:36;10.83;;;5.13;;
3177;SDS011;38141;42.666;23.344;2023-04-03T00:31:04;9.00;;;5.43;;
3177;SDS011;38141;42.666;23.344;2023-04-03T00:33:31;9.63;;;6.93;;
3177;SDS011;38141;42.666;23.344;2023-04-03T00:35:58;14.70;;;5.70;;
3177;SDS011;38141;42.666;23.344;2023-04-03T00:38:24;8.30;;;5.30;;
3177;SDS011;38141;42.666;23.344;2023-04-03T00:40:51;8.80;;;5.43;;
3177;SDS011;38141;42.666;23.344;2023-04-03T00:43:19;12.20;;;5.37;;
3177;SDS011;38141;42.666;23.344;2023-04-03T00:45:48;7.47;;;5.07;;
3177;SDS011;38141;42.666;23.344;2023-04-03T00:48:18;8.83;;;5.13;;
3177;SDS011;38141;42.666;23.344;2023-04-03T00:50:48;8.70;;;6.53;;
3177;SDS011;38141;42.666;23.344;2023-04-03T00:53:16;10.37;;;7.50;;
3177;SDS011;38141;42.666;23.344;2023-04-03T00:55:46;8.90;;;5.33;;
3177;SDS011;38141;42.666;23.344;2023-04-03T00:58:14;8.67;;;6.30;;
3177;SDS011;38141;42.666;23.344;2023-04-03T01:00:44;9.80;;;6.60;;
3177;SDS011;38141;42.666;23.344;2023-04-03T01:03:18;8.23;;;5.87;;
3177;SDS011;38141;42.666;23.344;2023-04-03T01:05:45;10.60;;;6.50;;
3177;SDS011;38141;42.666;23.344;2023-04-03T01:08:12;13.57;;;9.23;;
3177;SDS011;38141;42.666;23.344;2023-04-03T01:10:38;18.00;;;11.70;;
3177;SDS011;38141;42.666;23.344;2023-04-03T01:13:17;24.03;;;13.67;;
3177;SDS011;38141;42.666;23.344;2023-04-03T01:15:46;17.50;;;11.13;;
3177;SDS011;38141;42.666;23.344;2023-04-03T01:18:13;13.40;;;9.90;;
3177;SDS011;38141;42.666;23.344;2023-04-03T01:20:49;17.87;;;10.30;;
3177;SDS011;38141;42.666;23.344;2023-04-03T01:23:37;12.37;;;8.60;;
3177;SDS011;38141;42.666;23.344;2023-04-03T01:26:14;16.43;;;10.00;;
3177;SDS011;38141;42.666;23.344;2023-04-03T01:28:41;13.20;;;8.90;;
3177;SDS011;38141;42.666;23.344;2023-04-03T01:31:10;20.10;;;12.43;;
3177;SDS011;38141;42.666;23.344;2023-04-03T01:33:43;24.80;;;15.47;;
3177;SDS011;38141;42.666;23.344;2023-04-03T01:36:13;33.07;;;18.20;;
3177;SDS011;38141;42.666;23.344;2023-04-03T01:38:41;26.83;;;14.37;;
3177;SDS011;38141;42.666;23.344;2023-04-03T01:41:08;20.13;;;11.30;;
3177;SDS011;38141;42.666;23.344;2023-04-03T01:43:35;16.63;;;10.10;;
3177;SDS011;38141;42.666;23.344;2023-04-03T01:46:02;14.17;;;9.70;;
3177;SDS011;38141;42.666;23.344;2023-04-03T01:48:29;11.30;;;7.87;;
3177;SDS011;38141;42.666;23.344;2023-04-03T01:50:57;19.77;;;8.90;;
3177;SDS011;38141;42.666;23.344;2023-04-03T01:53:24;29.43;;;17.80;;
3177;SDS011;38141;42.666;23.344;2023-04-03T01:55:50;36.83;;;21.10;;
3177;SDS011;38141;42.666;23.344;2023-04-03T01:58:17;17.20;;;11.10;;
3177;SDS011;38141;42.666;23.344;2023-04-03T02:00:44;26.03;;;13.27;;
3177;SDS011;38141;42.666;23.344;2023-04-03T02:03:11;17.40;;;11.30;;
3177;SDS011;38141;42.666;23.344;2023-04-03T02:05:38;10.20;;;8.43;;
3177;SDS011;38141;42.666;23.344;2023-04-03T02:08:06;17.60;;;10.60;;
3177;SDS011;38141;42.666;23.344;2023-04-03T02:10:33;15.00;;;9.60;;
3177;SDS011;38141;42.666;23.344;2023-04-03T02:13:00;15.00;;;9.50;;
3177;SDS011;38141;42.666;23.344;2023-04-03T02:15:27;17.93;;;10.90;;
3177;SDS011;38141;42.666;23.344;2023-04-03T02:17:53;17.03;;;10.90;;
3177;SDS011;38141;42.666;23.344;2023-04-03T02:20:20;14.10;;;10.17;;
3177;SDS011;38141;42.666;23.344;2023-04-03T02:22:47;18.13;;;10.13;;
3177;SDS011;38141;42.666;23.344;2023-04-03T02:25:15;23.40;;;12.30;;
3177;SDS011;38141;42.666;23.344;2023-04-03T02:27:43;18.93;;;12.47;;
3177;SDS011;38141;42.666;23.344;2023-04-03T02:30:10;19.73;;;12.63;;
3177;SDS011;38141;42.666;23.344;2023-04-03T02:32:39;20.53;;;12.33;;
3177;SDS011;38141;42.666;23.344;2023-04-03T02:35:06;20.43;;;11.13;;
3177;SDS011;38141;42.666;23.344;2023-04-03T02:37:33;21.40;;;11.27;;
3177;SDS011;38141;42.666;23.344;2023-04-03T02:40:00;14.57;;;10.67;;
3177;SDS011;38141;42.666;23.344;2023-04-03T02:42:28;23.57;;;12.90;;
3177;SDS011;38141;42.666;23.344;2023-04-03T02:44:55;20.60;;;12.57;;
3177;SDS011;38141;42.666;23.344;2023-04-03T02:47:22;18.57;;;11.93;;
3177;SDS011;38141;42.666;23.344;2023-04-03T02:49:49;14.50;;;10.90;;
3177;SDS011;38141;42.666;23.344;2023-04-03T02:52:17;18.27;;;11.20;;
3177;SDS011;38141;42.666;23.344;2023-04-03T02:54:44;15.63;;;10.43;;
3177;SDS011;38141;42.666;23.344;2023-04-03T02:57:11;14.90;;;9.60;;
3177;SDS011;38141;42.666;23.344;2023-04-03T02:59:39;14.10;;;11.50;;
3177;SDS011;38141;42.666;23.344;2023-04-03T03:02:06;22.80;;;13.40;;
3177;SDS011;38141;42.666;23.344;2023-04-03T03:04:33;17.93;;;11.30;;
3177;SDS011;38141;42.666;23.344;2023-04-03T03:07:00;15.50;;;10.00;;
3177;SDS011;38141;42.666;23.344;2023-04-03T03:09:27;13.40;;;9.50;;
3177;SDS011;38141;42.666;23.344;2023-04-03T03:11:54;13.80;;;8.73;;
3177;SDS011;38141;42.666;23.344;2023-04-03T03:14:21;12.30;;;7.97;;
3177;SDS011;38141;42.666;23.344;2023-04-03T03:16:49;16.53;;;8.70;;
3177;SDS011;38141;42.666;23.344;2023-04-03T03:19:16;14.40;;;9.50;;
3177;SDS011;38141;42.666;23.344;2023-04-03T03:21:43;11.63;;;8.70;;
3177;SDS011;38141;42.666;23.344;2023-04-03T03:24:10;10.90;;;8.37;;
3177;SDS011;38141;42.666;23.344;2023-04-03T03:26:37;14.87;;;9.13;;
3177;SDS011;38141;42.666;23.344;2023-04-03T03:29:03;15.20;;;10.50;;
3177;SDS011;38141;42.666;23.344;2023-04-03T03:31:30;19.13;;;11.60;;
3177;SDS011;38141;42.666;23.344;2023-04-03T03:33:58;16.73;;;10.50;;
3177;SDS011;38141;42.666;23.344;2023-04-03T03:36:25;25.67;;;12.70;;
3177;SDS011;38141;42.666;23.344;2023-04-03T03:38:52;16.27;;;10.70;;
3177;SDS011;38141;42.666;23.344;2023-04-03T03:41:18;18.10;;;10.87;;
3177;SDS011;38141;42.666;23.344;2023-04-03T03:43:45;18.43;;;10.40;;
3177;SDS011;38141;42.666;23.344;2023-04-03T03:46:12;16.63;;;11.07;;
3177;SDS011;38141;42.666;23.344;2023-04-03T03:48:39;16.33;;;9.60;;
3177;SDS011;38141;42.666;23.344;2023-04-03T03:51:07;12.53;;;9.30;;
3177;SDS011;38141;42.666;23.344;2023-04-03T03:53:34;15.23;;;9.43;;
3177;SDS011;38141;42.666;23.344;2023-04-03T03:56:01;20.80;;;10.10;;
3177;SDS011;38141;42.666;23.344;2023-04-03T03:58:28;13.37;;;9.23;;
3177;SDS011;38141;42.666;23.344;2023-04-03T04:00:54;17.00;;;10.17;;
3177;SDS011;38141;42.666;23.344;2023-04-03T04:03:21;17.70;;;10.50;;
3177;SDS011;38141;42.666;23.344;2023-04-03T04:05:48;16.47;;;9.97;;
3177;SDS011;38141;42.666;23.344;2023-04-03T04:08:16;19.90;;;11.10;;
3177;SDS011;38141;42.666;23.344;2023-04-03T04:10:43;24.83;;;12.43;;
3177;SDS011;38141;42.666;23.344;2023-04-03T04:13:10;16.40;;;10.10;;
3177;SDS011;38141;42.666;23.344;2023-04-03T04:15:36;18.03;;;10.97;;
3177;SDS011;38141;42.666;23.344;2023-04-03T04:18:03;21.23;;;11.10;;
3177;SDS011;38141;42.666;23.344;2023-04-03T04:20:30;17.97;;;11.73;;
3177;SDS011;38141;42.666;23.344;2023-04-03T04:22:57;107.90;;;75.33;;
3177;SDS011;38141;42.666;23.344;2023-04-03T04:25:25;70.70;;;42.83;;
3177;SDS011;38141;42.666;23.344;2023-04-03T04:27:52;42.73;;;26.83;;
3177;SDS011;38141;42.666;23.344;2023-04-03T04:30:19;70.90;;;49.10;;
3177;SDS011;38141;42.666;23.344;2023-04-03T04:32:45;70.77;;;48.40;;
3177;SDS011;38141;42.666;23.344;2023-04-03T04:35:12;49.50;;;30.33;;
3177;SDS011;38141;42.666;23.344;2023-04-03T04:37:41;44.90;;;28.30;;
3177;SDS011;38141;42.666;23.344;2023-04-03T04:40:08;23.53;;;16.47;;
3177;SDS011;38141;42.666;23.344;2023-04-03T04:42:37;19.57;;;12.20;;
3177;SDS011;38141;42.666;23.344;2023-04-03T04:45:04;24.03;;;11.37;;
3177;SDS011;38141;42.666;23.344;2023-04-03T04:47:32;19.27;;;10.93;;
3177;SDS011;38141;42.666;23.344;2023-04-03T04:49:59;21.73;;;12.07;;
3177;SDS011;38141;42.666;23.344;2023-04-03T04:52:26;20.03;;;10.90;;
3177;SDS011;38141;42.666;23.344;2023-04-03T04:54:52;27.40;;;19.17;;
3177;SDS011;38141;42.666;23.344;2023-04-03T04:57:19;41.50;;;19.20;;
3177;SDS011;38141;42.666;23.344;2023-04-03T04:59:47;29.07;;;16.53;;
3177;SDS011;38141;42.666;23.344;2023-04-03T05:02:14;31.13;;;14.70;;
3177;SDS011;38141;42.666;23.344;2023-04-03T05:04:41;31.13;;;16.90;;
3177;SDS011;38141;42.666;23.344;2023-04-03T05:07:08;38.17;;;15.63;;
3177;SDS011;38141;42.666;23.344;2023-04-03T05:09:35;40.90;;;18.60;;
3177;SDS011;38141;42.666;23.344;2023-04-03T05:12:01;38.93;;;21.60;;
3177;SDS011;38141;42.666;23.344;2023-04-03T05:14:29;41.20;;;18.70;;
3177;SDS011;38141;42.666;23.344;2023-04-03T05:16:57;78.43;;;49.50;;
3177;SDS011;38141;42.666;23.344;2023-04-03T05:19:24;59.63;;;41.03;;
3177;SDS011;38141;42.666;23.344;2023-04-03T05:21:51;70.87;;;39.80;;
3177;SDS011;38141;42.666;23.344;2023-04-03T05:24:17;62.07;;;36.47;;
3177;SDS011;38141;42.666;23.344;2023-04-03T05:26:44;59.17;;;34.53;;
3177;SDS011;38141;42.666;23.344;2023-04-03T05:29:11;48.60;;;31.70;;
3177;SDS011;38141;42.666;23.344;2023-04-03T05:31:38;42.23;;;26.97;;
3177;SDS011;38141;42.666;23.344;2023-04-03T05:34:06;33.83;;;24.73;;
3177;SDS011;38141;42.666;23.344;2023-04-03T05:36:33;39.10;;;24.13;;
3177;SDS011;38141;42.666;23.344;2023-04-03T05:39:00;35.33;;;21.10;;
3177;SDS011;38141;42.666;23.344;2023-04-03T05:41:27;39.43;;;20.00;;
3177;SDS011;38141;42.666;23.344;2023-04-03T05:43:54;38.97;;;19.80;;
3177;SDS011;38141;42.666;23.344;2023-04-03T05:46:20;42.37;;;22.30;;
3177;SDS011;38141;42.666;23.344;2023-04-03T05:48:48;35.17;;;22.10;;
3177;SDS011;38141;42.666;23.344;2023-04-03T05:51:17;39.13;;;17.33;;
3177;SDS011;38141;42.666;23.344;2023-04-03T05:53:46;37.37;;;18.43;;
3177;SDS011;38141;42.666;23.344;2023-04-03T05:56:14;31.50;;;17.83;;
3177;SDS011;38141;42.666;23.344;2023-04-03T05:58:40;38.20;;;18.23;;
3177;SDS011;38141;42.666;23.344;2023-04-03T06:01:07;28.63;;;17.30;;
3177;SDS011;38141;42.666;23.344;2023-04-03T06:03:34;33.60;;;19.10;;
3177;SDS011;38141;42.666;23.344;2023-04-03T06:06:02;35.63;;;18.13;;
3177;SDS011;38141;42.666;23.344;2023-04-03T06:08:31;27.43;;;15.23;;
3177;SDS011;38141;42.666;23.344;2023-04-03T06:10:58;27.40;;;14.10;;
3177;SDS011;38141;42.666;23.344;2023-04-03T06:13:27;26.80;;;14.90;;
3177;SDS011;38141;42.666;23.344;2023-04-03T06:15:54;32.33;;;14.80;;
3177;SDS011;38141;42.666;23.344;2023-04-03T06:18:21;22.13;;;14.17;;
3177;SDS011;38141;42.666;23.344;2023-04-03T06:20:48;24.93;;;15.23;;
3177;SDS011;38141;42.666;23.344;2023-04-03T06:23:15;28.80;;;16.23;;
3177;SDS011;38141;42.666;23.344;2023-04-03T06:25:43;36.97;;;15.10;;
3177;SDS011;38141;42.666;23.344;2023-04-03T06:28:11;24.17;;;15.20;;
3177;SDS011;38141;42.666;23.344;2023-04-03T06:30:38;29.13;;;16.13;;
3177;SDS011;38141;42.666;23.344;2023-04-03T06:33:04;67.50;;;30.80;;
3177;SDS011;38141;42.666;23.344;2023-04-03T06:35:31;35.57;;;20.10;;
3177;SDS011;38141;42.666;23.344;2023-04-03T06:38:00;45.53;;;26.43;;
3177;SDS011;38141;42.666;23.344;2023-04-03T06:40:29;32.40;;;19.73;;
3177;SDS011;38141;42.666;23.344;2023-04-03T06:42:57;39.63;;;20.07;;
3177;SDS011;38141;42.666;23.344;2023-04-03T06:45:24;32.03;;;21.00;;
3177;SDS011;38141;42.666;23.344;2023-04-03T06:47:51;82.97;;;37.90;;
3177;SDS011;38141;42.666;23.344;2023-04-03T06:50:21;34.43;;;18.90;;
3177;SDS011;38141;42.666;23.344;2023-04-03T06:52:51;28.57;;;19.23;;
3177;SDS011;38141;42.666;23.344;2023-04-03T06:55:18;32.33;;;19.50;;
3177;SDS011;38141;42.666;23.344;2023-04-03T06:57:45;31.63;;;19.33;;
3177;SDS011;38141;42.666;23.344;2023-04-03T07:00:15;28.47;;;19.30;;
3177;SDS011;38141;42.666;23.344;2023-04-03T07:02:42;30.87;;;18.87;;
3177;SDS011;38141;42.666;23.344;2023-04-03T07:05:09;28.43;;;16.03;;
3177;SDS011;38141;42.666;23.344;2023-04-03T07:07:36;32.60;;;17.50;;
3177;SDS011;38141;42.666;23.344;2023-04-03T07:10:08;26.20;;;17.20;;
3177;SDS011;38141;42.666;23.344;2023-04-03T07:12:36;23.57;;;15.33;;
3177;SDS011;38141;42.666;23.344;2023-04-03T07:15:07;24.30;;;15.30;;
3177;SDS011;38141;42.666;23.344;2023-04-03T07:17:36;91.03;;;48.07;;
3177;SDS011;38141;42.666;23.344;2023-04-03T07:20:03;57.43;;;33.87;;
3177;SDS011;38141;42.666;23.344;2023-04-03T07:22:34;23.40;;;15.10;;
3177;SDS011;38141;42.666;23.344;2023-04-03T07:25:01;22.03;;;13.60;;
3177;SDS011;38141;42.666;23.344;2023-04-03T07:27:29;24.73;;;13.37;;
3177;SDS011;38141;42.666;23.344;2023-04-03T07:29:56;15.93;;;12.23;;
3177;SDS011;38141;42.666;23.344;2023-04-03T07:32:23;21.83;;;13.30;;
3177;SDS011;38141;42.666;23.344;2023-04-03T07:34:52;24.00;;;13.83;;
3177;SDS011;38141;42.666;23.344;2023-04-03T07:37:19;17.93;;;13.33;;
3177;SDS011;38141;42.666;23.344;2023-04-03T07:39:48;27.37;;;14.47;;
3177;SDS011;38141;42.666;23.344;2023-04-03T07:42:16;19.23;;;13.10;;
3177;SDS011;38141;42.666;23.344;2023-04-03T07:44:43;21.00;;;13.10;;
3177;SDS011;38141;42.666;23.344;2023-04-03T07:47:16;19.47;;;13.67;;
3177;SDS011;38141;42.666;23.344;2023-04-03T07:49:43;19.57;;;13.30;;
3177;SDS011;38141;42.666;23.344;2023-04-03T07:52:11;22.97;;;14.30;;
3177;SDS011;38141;42.666;23.344;2023-04-03T07:54:46;18.33;;;12.53;;
3177;SDS011;38141;42.666;23.344;2023-04-03T07:57:13;19.50;;;12.47;;
3177;SDS011;38141;42.666;23.344;2023-04-03T07:59:40;20.17;;;12.80;;
3177;SDS011;38141;42.666;23.344;2023-04-03T08:02:08;15.90;;;12.33;;
3177;SDS011;38141;42.666;23.344;2023-04-03T08:04:36;23.73;;;14.60;;
3177;SDS011;38141;42.666;23.344;2023-04-03T08:07:02;26.60;;;19.37;;
3177;SDS011;38141;42.666;23.344;2023-04-03T08:09:31;37.23;;;21.80;;
3177;SDS011;38141;42.666;23.344;2023-04-03T08:11:57;29.60;;;20.97;;
3177;SDS011;38141;42.666;23.344;2023-04-03T08:14:24;32.80;;;20.37;;
3177;SDS011;38141;42.666;23.344;2023-04-03T08:16:51;37.37;;;21.77;;
3177;SDS011;38141;42.666;23.344;2023-04-03T08:19:21;42.57;;;24.40;;
3177;SDS011;38141;42.666;23.344;2023-04-03T08:21:48;36.63;;;26.77;;
3177;SDS011;38141;42.666;23.344;2023-04-03T08:24:15;39.30;;;25.03;;
3177;SDS011;38141;42.666;23.344;2023-04-03T08:26:43;45.00;;;26.43;;
3177;SDS011;38141;42.666;23.344;2023-04-03T08:29:10;43.97;;;25.13;;
3177;SDS011;38141;42.666;23.344;2023-04-03T08:31:37;49.90;;;28.50;;
3177;SDS011;38141;42.666;23.344;2023-04-03T08:34:04;45.77;;;31.20;;
3177;SDS011;38141;42.666;23.344;2023-04-03T08:36:31;44.63;;;25.00;;
3177;SDS011;38141;42.666;23.344;2023-04-03T08:38:58;30.17;;;22.90;;
3177;SDS011;38141;42.666;23.344;2023-04-03T08:41:29;35.27;;;23.57;;
3177;SDS011;38141;42.666;23.344;2023-04-03T08:44:15;35.73;;;23.70;;
3177;SDS011;38141;42.666;23.344;2023-04-03T08:46:54;33.47;;;22.17;;
3177;SDS011;38141;42.666;23.344;2023-04-03T08:49:28;40.43;;;21.60;;
3177;SDS011;38141;42.666;23.344;2023-04-03T08:51:58;35.53;;;21.80;;
3177;SDS011;38141;42.666;23.344;2023-04-03T08:54:29;30.27;;;20.43;;
3177;SDS011;38141;42.666;23.344;2023-04-03T08:56:59;38.57;;;20.23;;
3177;SDS011;38141;42.666;23.344;2023-04-03T08:59:32;30.13;;;19.90;;
3177;SDS011;38141;42.666;23.344;2023-04-03T09:02:15;37.43;;;22.10;;
3177;SDS011;38141;42.666;23.344;2023-04-03T09:04:49;29.40;;;20.50;;
3177;SDS011;38141;42.666;23.344;2023-04-03T09:07:19;28.27;;;18.17;;
3177;SDS011;38141;42.666;23.344;2023-04-03T09:09:52;30.10;;;18.50;;
3177;SDS011;38141;42.666;23.344;2023-04-03T09:12:19;52.43;;;27.20;;
3177;SDS011;38141;42.666;23.344;2023-04-03T09:14:55;33.33;;;20.80;;
3177;SDS011;38141;42.666;23.344;2023-04-03T09:17:32;21.77;;;15.77;;
3177;SDS011;38141;42.666;23.344;2023-04-03T09:20:11;32.10;;;19.50;;
3177;SDS011;38141;42.666;23.344;2023-04-03T09:22:48;32.33;;;20.50;;
3177;SDS011;38141;42.666;23.344;2023-04-03T09:25:18;32.50;;;18.13;;
3177;SDS011;38141;42.666;23.344;2023-04-03T09:27:48;26.57;;;17.60;;
3177;SDS011;38141;42.666;23.344;2023-04-03T09:30:17;24.90;;;14.97;;
3177;SDS011;38141;42.666;23.344;2023-04-03T09:32:46;30.93;;;17.77;;
3177;SDS011;38141;42.666;23.344;2023-04-03T09:35:22;26.70;;;17.50;;
3177;SDS011;38141;42.666;23.344;2023-04-03T09:37:52;31.33;;;18.83;;
3177;SDS011;38141;42.666;23.344;2023-04-03T09:40:32;28.43;;;17.53;;
3177;SDS011;38141;42.666;23.344;2023-04-03T09:43:18;25.63;;;14.67;;
3177;SDS011;38141;42.666;23.344;2023-04-03T09:45:51;22.20;;;12.07;;
3177;SDS011;38141;42.666;23.344;2023-04-03T09:48:20;20.93;;;13.67;;
3177;SDS011;38141;42.666;23.344;2023-04-03T09:50:55;22.10;;;13.00;;
3177;SDS011;38141;42.666;23.344;2023-04-03T09:53:30;10.60;;;8.20;;
3177;SDS011;38141;42.666;23.344;2023-04-03T09:56:00;14.10;;;9.50;;
3177;SDS011;38141;42.666;23.344;2023-04-03T09:58:30;126.50;;;29.30;;
3177;SDS011;38141;42.666;23.344;2023-04-03T10:01:00;20.60;;;11.83;;
3177;SDS011;38141;42.666;23.344;2023-04-03T10:03:30;17.23;;;11.33;;
3177;SDS011;38141;42.666;23.344;2023-04-03T10:05:59;57.90;;;15.07;;
3177;SDS011;38141;42.666;23.344;2023-04-03T10:08:28;24.73;;;14.50;;
3177;SDS011;38141;42.666;23.344;2023-04-03T10:11:12;19.80;;;13.43;;
3177;SDS011;38141;42.666;23.344;2023-04-03T10:16:32;19.37;;;14.00;;
3177;SDS011;38141;42.666;23.344;2023-04-03T10:19:18;15.47;;;11.00;;
3177;SDS011;38141;42.666;23.344;2023-04-03T10:21:59;26.93;;;12.60;;
3177;SDS011;38141;42.666;23.344;2023-04-03T10:24:33;20.20;;;12.50;;
3177;SDS011;38141;42.666;23.344;2023-04-03T10:27:10;24.27;;;12.50;;
3177;SDS011;38141;42.666;23.344;2023-04-03T10:29:43;15.53;;;10.27;;
3177;SDS011;38141;42.666;23.344;2023-04-03T10:32:22;20.77;;;11.00;;
3177;SDS011;38141;42.666;23.344;2023-04-03T10:34:59;12.20;;;6.90;;
3177;SDS011;38141;42.666;23.344;2023-04-03T10:37:34;13.77;;;8.20;;
3177;SDS011;38141;42.666;23.344;2023-04-03T10:40:15;12.60;;;8.20;;
3177;SDS011;38141;42.666;23.344;2023-04-03T10:42:50;8.23;;;6.13;;
3177;SDS011;38141;42.666;23.344;2023-04-03T10:45:26;7.40;;;6.57;;
3177;SDS011;38141;42.666;23.344;2023-04-03T10:48:04;47.80;;;10.13;;
3177;SDS011;38141;42.666;23.344;2023-04-03T10:50:43;12.63;;;6.33;;
3177;SDS011;38141;42.666;23.344;2023-04-03T10:53:23;10.33;;;5.57;;
3177;SDS011;38141;42.666;23.344;2023-04-03T10:56:01;11.23;;;5.50;;
3177;SDS011;38141;42.666;23.344;2023-04-03T10:58:38;8.27;;;5.70;;
3177;SDS011;38141;42.666;23.344;2023-04-03T11:01:20;8.30;;;4.50;;
3177;SDS011;38141;42.666;23.344;2023-04-03T11:04:10;5.70;;;4.63;;
3177;SDS011;38141;42.666;23.344;2023-04-03T11:06:50;6.43;;;4.83;;
3177;SDS011;38141;42.666;23.344;2023-04-03T11:09:27;11.87;;;7.53;;
3177;SDS011;38141;42.666;23.344;2023-04-03T11:12:04;4.67;;;3.50;;
3177;SDS011;38141;42.666;23.344;2023-04-03T11:14:40;5.23;;;3.70;;
3177;SDS011;38141;42.666;23.344;2023-04-03T11:17:12;6.23;;;4.33;;
3177;SDS011;38141;42.666;23.344;2023-04-03T11:19:50;6.00;;;4.30;;
3177;SDS011;38141;42.666;23.344;2023-04-03T11:22:25;4.97;;;3.80;;
3177;SDS011;38141;42.666;23.344;2023-04-03T11:24:57;4.40;;;4.00;;
3177;SDS011;38141;42.666;23.344;2023-04-03T11:27:30;6.33;;;4.77;;
3177;SDS011;38141;42.666;23.344;2023-04-03T11:30:05;4.70;;;4.27;;
3177;SDS011;38141;42.666;23.344;2023-04-03T11:32:44;5.27;;;4.30;;
3177;SDS011;38141;42.666;23.344;2023-04-03T11:35:20;7.00;;;4.33;;
3177;SDS011;38141;42.666;23.344;2023-04-03T11:37:52;5.80;;;4.20;;
3177;SDS011;38141;42.666;23.344;2023-04-03T11:40:21;4.80;;;4.20;;
3177;SDS011;38141;42.666;23.344;2023-04-03T11:42:52;5.50;;;4.83;;
3177;SDS011;38141;42.666;23.344;2023-04-03T11:45:33;5.13;;;4.07;;
3177;SDS011;38141;42.666;23.344;2023-04-03T11:48:03;9.53;;;4.90;;
3177;SDS011;38141;42.666;23.344;2023-04-03T11:50:42;5.30;;;4.50;;
3177;SDS011;38141;42.666;23.344;2023-04-03T11:56:02;5.00;;;4.00;;
3177;SDS011;38141;42.666;23.344;2023-04-03T11:58:31;5.73;;;4.10;;
3177;SDS011;38141;42.666;23.344;2023-04-03T12:01:03;7.63;;;4.50;;
3177;SDS011;38141;42.666;23.344;2023-04-03T12:12:41;5.50;;;4.53;;
3177;SDS011;38141;42.666;23.344;2023-04-03T12:15:41;6.77;;;4.10;;
3177;SDS011;38141;42.666;23.344;2023-04-03T12:21:11;4.50;;;4.10;;
3177;SDS011;38141;42.666;23.344;2023-04-03T12:26:27;5.13;;;4.27;;
3177;SDS011;38141;42.666;23.344;2023-04-03T12:28:58;8.23;;;4.90;;
3177;SDS011;38141;42.666;23.344;2023-04-03T12:31:32;4.90;;;4.40;;
3177;SDS011;38141;42.666;23.344;2023-04-03T12:34:17;5.70;;;4.70;;
3177;SDS011;38141;42.666;23.344;2023-04-03T12:36:55;6.50;;;4.50;;
3177;SDS011;38141;42.666;23.344;2023-04-03T12:39:50;5.47;;;4.80;;
3177;SDS011;38141;42.666;23.344;2023-04-03T12:42:31;8.00;;;5.63;;
3177;SDS011;38141;42.666;23.344;2023-04-03T12:45:12;7.33;;;5.90;;
3177;SDS011;38141;42.666;23.344;2023-04-03T12:47:45;6.23;;;5.43;;
3177;SDS011;38141;42.666;23.344;2023-04-03T12:50:20;7.57;;;5.93;;
3177;SDS011;38141;42.666;23.344;2023-04-03T12:52:51;10.70;;;7.10;;
3177;SDS011;38141;42.666;23.344;2023-04-03T12:55:23;11.00;;;7.27;;
3177;SDS011;38141;42.666;23.344;2023-04-03T12:57:52;9.57;;;7.30;;
3177;SDS011;38141;42.666;23.344;2023-04-03T13:00:31;9.53;;;7.40;;
3177;SDS011;38141;42.666;23.344;2023-04-03T13:03:04;9.63;;;6.90;;
3177;SDS011;38141;42.666;23.344;2023-04-03T13:05:33;8.40;;;6.90;;
3177;SDS011;38141;42.666;23.344;2023-04-03T13:08:01;10.50;;;7.60;;
3177;SDS011;38141;42.666;23.344;2023-04-03T13:10:30;12.80;;;8.17;;
3177;SDS011;38141;42.666;23.344;2023-04-03T13:13:07;10.40;;;7.37;;
3177;SDS011;38141;42.666;23.344;2023-04-03T13:15:40;11.33;;;8.90;;
3177;SDS011;38141;42.666;23.344;2023-04-03T13:18:21;10.77;;;8.80;;
3177;SDS011;38141;42.666;23.344;2023-04-03T13:20:49;8.97;;;7.90;;
3177;SDS011;38141;42.666;23.344;2023-04-03T13:23:17;10.53;;;7.53;;
3177;SDS011;38141;42.666;23.344;2023-04-03T13:29:17;11.73;;;8.80;;
3177;SDS011;38141;42.666;23.344;2023-04-03T13:31:51;11.90;;;8.87;;
3177;SDS011;38141;42.666;23.344;2023-04-03T13:34:20;12.63;;;9.30;;
3177;SDS011;38141;42.666;23.344;2023-04-03T13:39:26;12.50;;;9.97;;
3177;SDS011;38141;42.666;23.344;2023-04-03T13:41:55;11.80;;;9.03;;
3177;SDS011;38141;42.666;23.344;2023-04-03T13:44:31;14.97;;;9.80;;
3177;SDS011;38141;42.666;23.344;2023-04-03T13:47:01;9.87;;;8.37;;
3177;SDS011;38141;42.666;23.344;2023-04-03T13:49:43;11.03;;;8.07;;
3177;SDS011;38141;42.666;23.344;2023-04-03T13:52:21;11.57;;;8.30;;
3177;SDS011;38141;42.666;23.344;2023-04-03T13:54:51;11.33;;;8.20;;
3177;SDS011;38141;42.666;23.344;2023-04-03T13:57:20;11.87;;;8.80;;
3177;SDS011;38141;42.666;23.344;2023-04-03T13:59:49;10.23;;;8.10;;
3177;SDS011;38141;42.666;23.344;2023-04-03T14:02:17;14.63;;;8.73;;
3177;SDS011;38141;42.666;23.344;2023-04-03T14:04:51;11.60;;;9.23;;
3177;SDS011;38141;42.666;23.344;2023-04-03T14:07:21;10.13;;;7.83;;
3177;SDS011;38141;42.666;23.344;2023-04-03T14:09:49;10.27;;;7.67;;
3177;SDS011;38141;42.666;23.344;2023-04-03T14:12:18;7.53;;;6.70;;
3177;SDS011;38141;42.666;23.344;2023-04-03T14:14:52;10.63;;;7.47;;
3177;SDS011;38141;42.666;23.344;2023-04-03T14:17:22;8.47;;;7.07;;
3177;SDS011;38141;42.666;23.344;2023-04-03T14:19:51;10.10;;;7.70;;
3177;SDS011;38141;42.666;23.344;2023-04-03T14:22:20;9.33;;;7.40;;
3177;SDS011;38141;42.666;23.344;2023-04-03T14:24:48;10.27;;;8.20;;
3177;SDS011;38141;42.666;23.344;2023-04-03T14:27:17;10.80;;;8.97;;
3177;SDS011;38141;42.666;23.344;2023-04-03T14:29:46;10.13;;;9.07;;
3177;SDS011;38141;42.666;23.344;2023-04-03T14:32:16;8.10;;;6.80;;
3177;SDS011;38141;42.666;23.344;2023-04-03T14:34:45;10.47;;;7.40;;
3177;SDS011;38141;42.666;23.344;2023-04-03T14:37:14;9.93;;;7.63;;
3177;SDS011;38141;42.666;23.344;2023-04-03T14:39:42;9.67;;;7.40;;
3177;SDS011;38141;42.666;23.344;2023-04-03T14:42:13;14.53;;;8.37;;
3177;SDS011;38141;42.666;23.344;2023-04-03T14:44:41;10.90;;;8.13;;
3177;SDS011;38141;42.666;23.344;2023-04-03T14:47:09;10.57;;;8.43;;
3177;SDS011;38141;42.666;23.344;2023-04-03T14:49:39;9.57;;;6.50;;
3177;SDS011;38141;42.666;23.344;2023-04-03T14:52:09;12.93;;;9.10;;
3177;SDS011;38141;42.666;23.344;2023-04-03T14:54:46;12.93;;;9.63;;
3177;SDS011;38141;42.666;23.344;2023-04-03T14:57:14;11.10;;;8.77;;
3177;SDS011;38141;42.666;23.344;2023-04-03T14:59:42;13.50;;;9.23;;
3177;SDS011;38141;42.666;23.344;2023-04-03T15:02:12;15.17;;;10.20;;
3177;SDS011;38141;42.666;23.344;2023-04-03T15:04:53;10.90;;;7.57;;
3177;SDS011;38141;42.666;23.344;2023-04-03T15:07:20;9.70;;;7.80;;
3177;SDS011;38141;42.666;23.344;2023-04-03T15:09:47;9.20;;;7.40;;
3177;SDS011;38141;42.666;23.344;2023-04-03T15:12:15;8.30;;;7.00;;